createdAt,value
2023-05-09T00:00:55.160Z,33.75
2023-05-09T00:01:55.187Z,33.68
2023-05-09T00:02:55.130Z,33.72
2023-05-09T00:03:55.166Z,33.76
2023-05-09T00:04:55.992Z,33.75
2023-05-09T00:05:55.057Z,33.72
2023-05-09T00:06:55.030Z,33.82
2023-05-09T00:07:55.004Z,33.82
2023-05-09T00:08:54.981Z,33.80
2023-05-09T00:09:54.975Z,33.77
2023-05-09T00:10:54.968Z,33.75
2023-05-09T00:11:55.004Z,33.71
2023-05-09T00:12:55.044Z,33.77
2023-05-09T00:13:55.172Z,33.73
2023-05-09T00:14:55.137Z,33.76
2023-05-09T00:15:55.171Z,33.75
2023-05-09T00:16:55.267Z,33.75
2023-05-09T00:17:55.189Z,33.76
2023-05-09T00:18:55.151Z,33.78
2023-05-09T00:19:55.177Z,33.80
2023-05-09T00:20:55.180Z,33.77
2023-05-09T00:21:55.191Z,33.73
2023-05-09T00:22:55.195Z,33.73
2023-05-09T00:23:55.183Z,33.69
2023-05-09T00:24:55.179Z,33.73
2023-05-09T00:25:55.182Z,33.76
2023-05-09T00:26:55.203Z,33.75
2023-05-09T00:27:55.217Z,33.72
2023-05-09T00:28:55.205Z,33.73
2023-05-09T00:29:55.316Z,33.73
2023-05-09T00:30:55.203Z,33.72
2023-05-09T00:31:55.243Z,33.74
2023-05-09T00:32:55.263Z,33.77
2023-05-09T00:33:55.228Z,33.76
2023-05-09T00:34:55.228Z,33.74
2023-05-09T00:35:55.250Z,33.76
2023-05-09T00:36:55.252Z,33.76
2023-05-09T00:37:55.245Z,33.82
2023-05-09T00:38:55.248Z,33.76
2023-05-09T00:39:55.253Z,33.77
2023-05-09T00:40:55.260Z,33.81
2023-05-09T00:41:55.276Z,33.67
2023-05-09T00:42:55.291Z,33.77
2023-05-09T00:43:55.262Z,33.79
2023-05-09T00:44:55.261Z,33.78
2023-05-09T00:45:55.353Z,33.76
2023-05-09T00:46:55.193Z,33.81
2023-05-09T00:47:55.198Z,33.74
2023-05-09T00:48:55.187Z,33.69
2023-05-09T00:49:55.131Z,33.74
2023-05-09T00:50:55.129Z,33.72
2023-05-09T00:51:55.101Z,33.72
2023-05-09T00:52:55.074Z,33.74
2023-05-09T00:53:55.065Z,33.70
2023-05-09T00:54:55.044Z,33.77
2023-05-09T00:55:55.033Z,33.76
2023-05-09T00:56:55.042Z,33.77
2023-05-09T00:57:54.992Z,33.72
2023-05-09T00:58:54.973Z,33.70
2023-05-09T00:59:54.962Z,33.77
2023-05-09T01:00:54.939Z,33.69
2023-05-09T01:01:55.089Z,33.72
2023-05-09T01:02:55.002Z,33.72
2023-05-09T01:03:54.971Z,33.71
2023-05-09T01:04:54.975Z,33.67
2023-05-09T01:05:54.991Z,33.75
2023-05-09T01:06:54.996Z,33.69
2023-05-09T01:07:55.017Z,33.77
2023-05-09T01:08:55.036Z,33.81
2023-05-09T01:09:55.023Z,33.76
2023-05-09T01:10:55.060Z,33.73
2023-05-09T01:11:55.059Z,33.71
2023-05-09T01:12:55.118Z,33.74
2023-05-09T01:13:55.074Z,33.71
2023-05-09T01:14:55.105Z,33.74
2023-05-09T01:15:55.232Z,33.76
2023-05-09T01:16:55.117Z,33.73
2023-05-09T01:17:55.222Z,33.73
2023-05-09T01:18:55.133Z,33.73
2023-05-09T01:19:55.154Z,33.69
2023-05-09T01:20:55.157Z,33.74
2023-05-09T01:21:55.160Z,33.70
2023-05-09T01:22:55.191Z,33.76
2023-05-09T01:23:55.201Z,33.70
2023-05-09T01:24:55.227Z,33.73
2023-05-09T01:25:55.214Z,33.76
2023-05-09T01:26:55.226Z,33.66
2023-05-09T01:27:55.263Z,33.71
2023-05-09T01:28:55.264Z,33.75
2023-05-09T01:29:55.268Z,33.74
2023-05-09T01:30:55.288Z,33.66
2023-05-09T01:31:55.307Z,33.74
2023-05-09T01:32:55.403Z,33.67
2023-05-09T01:33:55.398Z,33.71
2023-05-09T01:34:55.311Z,33.76
2023-05-09T01:35:55.346Z,33.74
2023-05-09T01:36:55.340Z,33.72
2023-05-09T01:37:55.341Z,33.72
2023-05-09T01:38:55.353Z,33.74
2023-05-09T01:39:55.382Z,33.74
2023-05-09T01:40:55.390Z,33.69
2023-05-09T01:41:55.395Z,33.70
2023-05-09T01:42:55.427Z,33.66
2023-05-09T01:43:55.482Z,33.74
2023-05-09T01:44:55.456Z,33.68
2023-05-09T01:45:55.467Z,33.70
2023-05-09T01:46:55.567Z,33.67
2023-05-09T01:47:55.532Z,33.72
2023-05-09T01:48:55.500Z,33.71
2023-05-09T01:49:55.650Z,33.70
2023-05-09T01:50:55.552Z,33.74
2023-05-09T01:51:55.517Z,33.71
2023-05-09T01:52:55.489Z,33.68
2023-05-09T01:53:55.488Z,33.75
2023-05-09T01:54:55.450Z,33.71
2023-05-09T01:55:55.419Z,33.72
2023-05-09T01:56:55.408Z,33.67
2023-05-09T01:57:55.383Z,33.72
2023-05-09T01:58:55.374Z,33.64
2023-05-09T01:59:55.342Z,33.63
2023-05-09T02:00:55.324Z,33.66
2023-05-09T02:01:55.377Z,33.70
2023-05-09T02:02:55.482Z,33.76
2023-05-09T02:03:55.286Z,33.74
2023-05-09T02:04:55.236Z,33.71
2023-05-09T02:05:55.319Z,33.73
2023-05-09T02:06:55.193Z,33.74
2023-05-09T02:07:55.169Z,33.70
2023-05-09T02:08:55.154Z,33.68
2023-05-09T02:09:55.144Z,33.67
2023-05-09T02:10:55.125Z,33.68
2023-05-09T02:11:55.118Z,33.72
2023-05-09T02:12:55.198Z,33.67
2023-05-09T02:13:55.070Z,33.63
2023-05-09T02:14:55.057Z,33.67
2023-05-09T02:15:55.036Z,33.68
2023-05-09T02:16:55.125Z,33.68
2023-05-09T02:17:55.021Z,33.63
2023-05-09T02:18:54.976Z,33.68
2023-05-09T02:19:54.956Z,33.72
2023-05-09T02:20:54.957Z,33.71
2023-05-09T02:21:55.024Z,33.71
2023-05-09T02:22:54.880Z,33.66
2023-05-09T02:23:54.867Z,33.66
2023-05-09T02:24:54.896Z,33.65
2023-05-09T02:25:54.846Z,33.66
2023-05-09T02:26:54.814Z,33.70
2023-05-09T02:27:54.807Z,33.68
2023-05-09T02:28:54.815Z,33.73
2023-05-09T02:29:54.855Z,33.71
2023-05-09T02:30:54.857Z,33.67
2023-05-09T02:31:54.897Z,33.67
2023-05-09T02:32:54.885Z,33.72
2023-05-09T02:33:54.846Z,33.67
2023-05-09T02:34:54.813Z,33.72
2023-05-09T02:35:54.794Z,33.73
2023-05-09T02:36:54.793Z,33.67
2023-05-09T02:37:54.845Z,33.78
2023-05-09T02:38:54.737Z,33.64
2023-05-09T02:39:54.742Z,33.70
2023-05-09T02:40:54.716Z,33.67
2023-05-09T02:41:54.700Z,33.65
2023-05-09T02:42:54.699Z,33.73
2023-05-09T02:43:54.666Z,33.67
2023-05-09T02:44:54.643Z,33.67
2023-05-09T02:45:54.657Z,33.69
2023-05-09T02:46:54.622Z,33.64
2023-05-09T02:47:54.640Z,33.68
2023-05-09T02:48:54.594Z,33.71
2023-05-09T02:49:54.578Z,33.65
2023-05-09T02:50:54.577Z,33.65
2023-05-09T02:51:54.557Z,33.72
2023-05-09T02:52:54.548Z,33.67
2023-05-09T02:53:54.603Z,33.71
2023-05-09T02:54:54.507Z,33.67
2023-05-09T02:55:54.493Z,33.62
2023-05-09T02:56:54.488Z,33.69
2023-05-09T02:58:05.359Z,33.71
2023-05-09T02:58:54.437Z,33.69
2023-05-09T02:59:54.435Z,33.68
2023-05-09T03:00:54.425Z,33.68
2023-05-09T03:01:54.491Z,33.68
2023-05-09T03:02:54.453Z,33.67
2023-05-09T03:03:54.462Z,33.67
2023-05-09T03:04:54.331Z,33.72
2023-05-09T03:05:54.315Z,33.66
2023-05-09T03:06:54.319Z,33.68
2023-05-09T03:07:54.283Z,33.67
2023-05-09T03:08:54.300Z,33.68
2023-05-09T03:09:54.353Z,33.71
2023-05-09T03:10:54.304Z,33.71
2023-05-09T03:11:54.320Z,33.65
2023-05-09T03:12:54.351Z,33.68
2023-05-09T03:13:54.371Z,33.66
2023-05-09T03:14:54.366Z,33.69
2023-05-09T03:15:54.397Z,33.64
2023-05-09T03:16:54.380Z,33.65
2023-05-09T03:17:54.437Z,33.61
2023-05-09T03:18:54.409Z,33.68
2023-05-09T03:19:54.453Z,33.69
2023-05-09T03:20:54.438Z,33.68
2023-05-09T03:21:54.448Z,33.68
2023-05-09T03:22:54.468Z,33.69
2023-05-09T03:23:54.479Z,33.64
2023-05-09T03:24:54.517Z,33.71
2023-05-09T03:25:54.612Z,33.66
2023-05-09T03:26:54.541Z,33.69
2023-05-09T03:27:54.566Z,33.72
2023-05-09T03:28:54.578Z,33.65
2023-05-09T03:29:54.589Z,33.65
2023-05-09T03:30:54.622Z,33.63
2023-05-09T03:31:54.657Z,33.66
2023-05-09T03:32:54.699Z,33.66
2023-05-09T03:33:54.666Z,33.68
2023-05-09T03:34:54.703Z,33.66
2023-05-09T03:35:54.691Z,33.64
2023-05-09T03:36:54.714Z,33.67
2023-05-09T03:37:54.743Z,33.65
2023-05-09T03:38:54.777Z,33.65
2023-05-09T03:39:54.795Z,33.68
2023-05-09T03:40:54.813Z,33.65
2023-05-09T03:41:54.918Z,33.65
2023-05-09T03:42:54.843Z,33.65
2023-05-09T03:43:54.856Z,33.67
2023-05-09T03:44:54.904Z,33.65
2023-05-09T03:45:54.905Z,33.61
2023-05-09T03:46:55.032Z,33.65
2023-05-09T03:47:54.977Z,33.66
2023-05-09T03:48:54.961Z,33.58
2023-05-09T03:49:54.981Z,33.61
2023-05-09T03:50:54.981Z,33.62
2023-05-09T03:51:54.979Z,33.58
2023-05-09T03:52:54.952Z,33.64
2023-05-09T03:53:54.935Z,33.66
2023-05-09T03:54:54.922Z,33.65
2023-05-09T03:55:54.892Z,33.59
2023-05-09T03:56:54.874Z,33.56
2023-05-09T03:57:54.944Z,33.61
2023-05-09T03:58:54.848Z,33.65
2023-05-09T03:59:54.814Z,33.62
2023-05-09T04:00:54.794Z,33.63
2023-05-09T04:01:54.793Z,33.63
2023-05-09T04:02:54.811Z,33.61
2023-05-09T04:03:54.821Z,33.60
2023-05-09T04:04:54.738Z,33.59
2023-05-09T04:05:54.671Z,33.59
2023-05-09T04:06:54.653Z,33.59
2023-05-09T04:07:54.633Z,33.55
2023-05-09T04:08:54.620Z,33.56
2023-05-09T04:09:54.592Z,33.56
2023-05-09T04:10:54.588Z,33.61
2023-05-09T04:11:54.565Z,33.56
2023-05-09T04:12:54.575Z,33.57
2023-05-09T04:13:54.618Z,33.54
2023-05-09T04:14:54.503Z,33.53
2023-05-09T04:15:54.493Z,33.62
2023-05-09T04:16:54.489Z,33.62
2023-05-09T04:17:54.594Z,33.56
2023-05-09T04:18:54.440Z,33.56
2023-05-09T04:19:54.459Z,33.53
2023-05-09T04:20:54.475Z,33.53
2023-05-09T04:21:54.500Z,33.58
2023-05-09T04:22:54.518Z,33.62
2023-05-09T04:23:54.513Z,33.56
2023-05-09T04:24:54.537Z,33.56
2023-05-09T04:25:54.549Z,33.56
2023-05-09T04:26:54.575Z,33.53
2023-05-09T04:27:54.569Z,33.56
2023-05-09T04:28:54.579Z,33.58
2023-05-09T04:29:54.700Z,33.58
2023-05-09T04:30:54.771Z,33.59
2023-05-09T04:31:54.783Z,33.55
2023-05-09T04:32:54.675Z,33.60
2023-05-09T04:33:54.696Z,33.60
2023-05-09T04:34:54.694Z,33.56
2023-05-09T04:35:54.720Z,33.57
2023-05-09T04:36:54.741Z,33.60
2023-05-09T04:37:54.759Z,33.56
2023-05-09T04:38:54.793Z,33.55
2023-05-09T04:39:54.837Z,33.56
2023-05-09T04:40:54.868Z,33.60
2023-05-09T04:41:54.893Z,33.55
2023-05-09T04:42:54.909Z,33.55
2023-05-09T04:43:54.939Z,33.55
2023-05-09T04:44:54.943Z,33.55
2023-05-09T04:45:55.105Z,33.54
2023-05-09T04:46:54.998Z,33.59
2023-05-09T04:47:55.069Z,33.60
2023-05-09T04:48:55.016Z,33.55
2023-05-09T04:49:55.044Z,33.59
2023-05-09T04:50:55.074Z,33.52
2023-05-09T04:51:55.066Z,33.57
2023-05-09T04:52:55.095Z,33.56
2023-05-09T04:53:55.114Z,33.52
2023-05-09T04:54:55.134Z,33.60
2023-05-09T04:55:55.160Z,33.50
2023-05-09T04:57:55.176Z,33.57
2023-05-09T04:58:55.216Z,33.57
2023-05-09T04:59:55.214Z,33.53
2023-05-09T05:00:55.226Z,33.52
2023-05-09T05:01:55.367Z,33.56
2023-05-09T05:02:55.313Z,33.57
2023-05-09T05:03:55.278Z,33.57
2023-05-09T05:05:02.913Z,33.55
2023-05-09T05:05:56.298Z,33.52
2023-05-09T05:06:55.259Z,33.59
2023-05-09T05:07:55.272Z,33.53
2023-05-09T05:08:55.221Z,33.56
2023-05-09T05:09:55.222Z,33.57
2023-05-09T05:10:55.180Z,33.63
2023-05-09T05:12:00.741Z,33.63
2023-05-09T05:12:56.226Z,33.55
2023-05-09T05:13:55.127Z,33.55
2023-05-09T05:14:55.112Z,33.62
2023-05-09T05:15:55.114Z,33.60
2023-05-09T05:16:55.072Z,33.53
2023-05-09T05:17:55.202Z,33.52
2023-05-09T05:18:55.034Z,33.50
2023-05-09T05:19:55.024Z,33.55
2023-05-09T05:20:55.049Z,33.59
2023-05-09T05:21:54.992Z,33.54
2023-05-09T05:22:55.008Z,33.55
2023-05-09T05:23:54.952Z,33.59
2023-05-09T05:24:54.970Z,33.51
2023-05-09T05:25:54.945Z,33.52
2023-05-09T05:26:54.927Z,33.52
2023-05-09T05:27:54.910Z,33.52
2023-05-09T05:28:54.881Z,33.53
2023-05-09T05:29:54.885Z,33.59
2023-05-09T05:30:54.869Z,33.51
2023-05-09T05:31:54.875Z,33.57
2023-05-09T05:32:54.861Z,33.46
2023-05-09T05:33:54.892Z,33.49
2023-05-09T05:34:54.798Z,33.84
2023-05-09T05:35:54.765Z,34.40
2023-05-09T05:36:54.788Z,34.76
2023-05-09T05:37:54.732Z,35.17
2023-05-09T05:38:54.716Z,35.42
2023-05-09T05:39:54.698Z,35.78
2023-05-09T05:40:54.693Z,35.89
2023-05-09T05:41:54.659Z,35.96
2023-05-09T05:42:54.630Z,35.96
2023-05-09T05:43:54.688Z,36.29
2023-05-09T05:44:54.593Z,36.07
2023-05-09T05:45:54.597Z,36.10
2023-05-09T05:46:54.533Z,36.09
2023-05-09T05:47:54.519Z,35.98
2023-05-09T05:48:54.471Z,36.10
2023-05-09T05:49:54.545Z,36.09
2023-05-09T05:50:54.454Z,36.10
2023-05-09T05:51:54.411Z,35.58
2023-05-09T05:52:54.377Z,35.55
2023-05-09T05:53:54.352Z,35.43
2023-05-09T05:54:54.337Z,35.95
2023-05-09T05:55:54.308Z,35.66
2023-05-09T05:56:54.288Z,35.74
2023-05-09T05:57:54.282Z,35.50
2023-05-09T05:58:54.257Z,35.45
2023-05-09T05:59:54.226Z,35.50
2023-05-09T06:00:54.249Z,35.68
2023-05-09T06:01:54.239Z,35.87
2023-05-09T06:02:54.320Z,35.79
2023-05-09T06:03:54.273Z,35.84
2023-05-09T06:04:55.918Z,35.73
2023-05-09T06:05:54.278Z,35.77
2023-05-09T06:06:54.095Z,35.72
2023-05-09T06:07:54.075Z,36.03
2023-05-09T06:08:54.043Z,35.91
2023-05-09T06:09:54.043Z,35.80
2023-05-09T06:10:54.001Z,35.57
2023-05-09T06:11:54.030Z,36.03
2023-05-09T06:12:53.990Z,36.08
2023-05-09T06:13:53.950Z,35.94
2023-05-09T06:14:53.915Z,35.85
2023-05-09T06:15:54.258Z,35.84
2023-05-09T06:16:53.952Z,36.07
2023-05-09T06:17:53.886Z,36.06
2023-05-09T06:18:55.946Z,36.11
2023-05-09T06:19:53.813Z,36.01
2023-05-09T06:20:53.811Z,35.89
2023-05-09T06:21:53.869Z,35.84
2023-05-09T06:22:53.829Z,36.06
2023-05-09T06:24:53.741Z,35.89
2023-05-09T06:25:53.711Z,35.74
2023-05-09T06:26:53.685Z,35.74
2023-05-09T06:27:54.191Z,36.05
2023-05-09T06:28:53.655Z,35.99
2023-05-09T06:29:53.639Z,35.99
2023-05-09T06:30:53.597Z,36.01
2023-05-09T06:31:53.728Z,36.22
2023-05-09T06:32:53.646Z,36.23
2023-05-09T06:33:53.539Z,36.33
2023-05-09T06:34:53.543Z,36.41
2023-05-09T06:35:53.568Z,36.11
2023-05-09T06:36:53.480Z,36.07
2023-05-09T06:37:53.580Z,36.16
2023-05-09T06:38:53.451Z,36.17
2023-05-09T06:39:53.434Z,36.37
2023-05-09T06:40:53.410Z,36.48
2023-05-09T06:41:53.379Z,36.55
2023-05-09T06:42:53.356Z,36.77
2023-05-09T06:43:53.352Z,36.82
2023-05-09T06:44:53.329Z,36.53
2023-05-09T06:45:53.304Z,36.47
2023-05-09T06:46:53.285Z,36.41
2023-05-09T06:47:53.267Z,36.08
2023-05-09T06:48:53.222Z,36.25
2023-05-09T06:49:53.213Z,36.23
2023-05-09T06:50:53.198Z,36.14
2023-05-09T06:51:53.154Z,35.97
2023-05-09T06:52:53.188Z,35.63
2023-05-09T06:53:53.196Z,35.41
2023-05-09T06:54:53.061Z,35.44
2023-05-09T06:55:53.066Z,35.37
2023-05-09T06:56:53.016Z,35.31
2023-05-09T06:57:52.988Z,35.37
2023-05-09T06:58:53.010Z,35.58
2023-05-09T06:59:52.935Z,35.87
2023-05-09T07:00:52.916Z,35.76
2023-05-09T07:01:52.921Z,35.51
2023-05-09T07:02:52.940Z,35.28
2023-05-09T07:03:52.838Z,35.84
2023-05-09T07:04:52.845Z,35.82
2023-05-09T07:05:52.780Z,36.00
2023-05-09T07:06:52.787Z,36.08
2023-05-09T07:07:52.749Z,36.10
2023-05-09T07:08:52.715Z,36.02
2023-05-09T07:09:55.273Z,36.05
2023-05-09T07:10:53.676Z,36.29
2023-05-09T07:11:52.647Z,36.02
2023-05-09T07:12:52.697Z,35.91
2023-05-09T07:13:52.594Z,35.99
2023-05-09T07:14:52.546Z,36.16
2023-05-09T07:15:52.528Z,35.88
2023-05-09T07:16:52.611Z,35.70
2023-05-09T07:17:52.509Z,35.57
2023-05-09T07:18:52.452Z,35.57
2023-05-09T07:19:52.446Z,35.50
2023-05-09T07:20:52.391Z,35.33
2023-05-09T07:21:52.380Z,35.57
2023-05-09T07:22:52.388Z,35.62
2023-05-09T07:23:52.387Z,35.59
2023-05-09T07:24:52.310Z,35.45
2023-05-09T07:25:52.377Z,35.30
2023-05-09T07:26:52.209Z,35.45
2023-05-09T07:27:52.260Z,35.43
2023-05-09T07:28:52.159Z,35.32
2023-05-09T07:29:52.130Z,35.38
2023-05-09T07:30:52.094Z,35.49
2023-05-09T07:31:52.127Z,35.55
2023-05-09T07:32:52.222Z,35.33
2023-05-09T07:33:52.018Z,35.36
2023-05-09T07:34:52.168Z,35.31
2023-05-09T07:35:51.926Z,35.23
2023-05-09T07:36:51.938Z,35.30
2023-05-09T07:37:51.862Z,35.42
2023-05-09T07:38:51.928Z,35.42
2023-05-09T07:39:51.787Z,35.44
2023-05-09T07:40:51.749Z,35.37
2023-05-09T07:41:51.729Z,35.45
2023-05-09T07:42:51.671Z,35.28
2023-05-09T07:43:51.636Z,35.25
2023-05-09T07:44:51.629Z,35.33
2023-05-09T07:45:51.598Z,35.33
2023-05-09T07:46:51.529Z,35.25
2023-05-09T07:47:51.544Z,35.35
2023-05-09T07:48:51.486Z,35.29
2023-05-09T07:49:51.534Z,35.20
2023-05-09T07:50:51.557Z,35.04
2023-05-09T07:51:51.514Z,35.40
2023-05-09T07:52:51.477Z,35.61
2023-05-09T07:53:51.495Z,35.49
2023-05-09T07:54:51.421Z,35.41
2023-05-09T07:55:51.419Z,35.26
2023-05-09T07:56:51.360Z,35.44
2023-05-09T07:57:51.399Z,35.46
2023-05-09T07:58:52.146Z,35.31
2023-05-09T07:59:51.276Z,35.26
2023-05-09T08:00:51.269Z,35.14
2023-05-09T08:01:51.401Z,35.00
2023-05-09T08:02:51.370Z,35.04
2023-05-09T08:03:51.366Z,34.87
2023-05-09T08:04:51.338Z,34.92
2023-05-09T08:05:51.372Z,34.83
2023-05-09T08:06:51.375Z,34.74
2023-05-09T08:07:51.321Z,35.04
2023-05-09T08:08:51.287Z,35.00
2023-05-09T08:09:51.266Z,34.86
2023-05-09T08:10:51.238Z,34.83
2023-05-09T08:11:51.182Z,34.76
2023-05-09T08:12:51.173Z,34.84
2023-05-09T08:13:51.224Z,34.64
2023-05-09T08:14:51.089Z,34.83
2023-05-09T08:15:51.138Z,34.73
2023-05-09T08:16:51.017Z,34.86
2023-05-09T08:17:51.025Z,34.93
2023-05-09T08:18:50.983Z,34.82
2023-05-09T08:19:50.953Z,34.76
2023-05-09T08:20:50.909Z,34.83
2023-05-09T08:21:50.870Z,34.91
2023-05-09T08:22:50.842Z,34.85
2023-05-09T08:23:50.821Z,34.87
2023-05-09T08:24:50.793Z,34.89
2023-05-09T08:25:50.746Z,34.97
2023-05-09T08:26:50.734Z,34.97
2023-05-09T08:27:53.003Z,34.98
2023-05-09T08:28:50.677Z,34.93
2023-05-09T08:29:50.781Z,34.81
2023-05-09T08:30:50.697Z,34.87
2023-05-09T08:31:50.709Z,35.01
2023-05-09T08:32:50.731Z,34.04
2023-05-09T08:33:50.749Z,33.60
2023-05-09T08:34:50.772Z,33.45
2023-05-09T08:35:50.746Z,33.34
2023-05-09T08:36:50.732Z,33.40
2023-05-09T08:37:50.702Z,33.14
2023-05-09T08:38:50.830Z,32.30
2023-05-09T08:39:50.690Z,32.11
2023-05-09T08:40:50.651Z,32.59
2023-05-09T08:41:50.624Z,32.22
2023-05-09T08:42:50.643Z,32.61
2023-05-09T08:43:50.711Z,32.75
2023-05-09T08:44:50.595Z,32.85
2023-05-09T08:45:50.666Z,33.07
2023-05-09T08:46:50.521Z,33.78
2023-05-09T08:47:50.523Z,33.94
2023-05-09T08:48:50.465Z,34.40
2023-05-09T08:49:50.485Z,34.49
2023-05-09T08:50:50.403Z,34.52
2023-05-09T08:51:50.381Z,34.31
2023-05-09T08:52:50.360Z,33.48
2023-05-09T08:53:50.334Z,32.97
2023-05-09T08:54:50.303Z,32.76
2023-05-09T08:55:50.350Z,32.24
2023-05-09T08:56:50.381Z,32.58
2023-05-09T08:57:50.350Z,32.64
2023-05-09T08:58:50.446Z,32.40
2023-05-09T08:59:50.269Z,32.64
2023-05-09T09:00:50.344Z,32.98
2023-05-09T09:01:50.376Z,33.26
2023-05-09T09:02:50.228Z,33.72
2023-05-09T09:03:50.172Z,33.78
2023-05-09T09:04:50.204Z,33.91
2023-05-09T09:05:50.120Z,34.00
2023-05-09T09:06:50.088Z,34.42
2023-05-09T09:07:50.048Z,34.57
2023-05-09T09:08:50.053Z,34.59
2023-05-09T09:09:50.062Z,34.58
2023-05-09T09:10:49.976Z,34.70
2023-05-09T09:11:49.950Z,34.75
2023-05-09T09:12:50.223Z,34.69
2023-05-09T09:13:49.889Z,34.61
2023-05-09T09:14:49.828Z,34.72
2023-05-09T09:15:49.821Z,34.79
2023-05-09T09:16:49.825Z,34.76
2023-05-09T09:17:49.895Z,34.82
2023-05-09T09:18:49.695Z,34.86
2023-05-09T09:19:49.799Z,34.88
2023-05-09T09:20:49.608Z,34.92
2023-05-09T09:21:49.599Z,35.00
2023-05-09T09:22:49.561Z,34.87
2023-05-09T09:23:49.523Z,34.91
2023-05-09T09:24:50.543Z,34.85
2023-05-09T09:25:49.558Z,35.07
2023-05-09T09:26:49.408Z,35.12
2023-05-09T09:27:49.351Z,35.02
2023-05-09T09:28:49.323Z,35.18
2023-05-09T09:29:49.334Z,35.14
2023-05-09T09:30:49.262Z,35.18
2023-05-09T09:31:49.240Z,35.16
2023-05-09T09:32:49.267Z,35.28
2023-05-09T09:33:49.364Z,33.97
2023-05-09T09:34:49.396Z,32.92
2023-05-09T09:35:49.292Z,32.63
2023-05-09T09:36:49.329Z,31.88
2023-05-09T09:37:49.364Z,31.91
2023-05-09T09:38:49.373Z,31.86
2023-05-09T09:39:49.397Z,31.67
2023-05-09T09:40:49.540Z,31.87
2023-05-09T09:41:49.475Z,32.54
2023-05-09T09:42:49.426Z,33.08
2023-05-09T09:43:49.445Z,33.76
2023-05-09T09:44:49.484Z,33.72
2023-05-09T09:45:49.532Z,33.78
2023-05-09T09:46:49.553Z,34.02
2023-05-09T09:47:49.542Z,33.89
2023-05-09T09:48:49.485Z,33.81
2023-05-09T09:49:49.559Z,33.08
2023-05-09T09:50:49.475Z,33.55
2023-05-09T09:51:49.415Z,33.33
2023-05-09T09:52:49.420Z,33.39
2023-05-09T09:53:49.352Z,33.42
2023-05-09T09:54:49.322Z,33.50
2023-05-09T09:55:49.516Z,33.73
2023-05-09T09:56:49.295Z,33.70
2023-05-09T09:57:49.225Z,33.70
2023-05-09T09:58:49.273Z,33.79
2023-05-09T09:59:49.289Z,33.92
2023-05-09T10:00:49.335Z,34.06
2023-05-09T10:01:49.351Z,33.99
2023-05-09T10:02:49.477Z,33.96
2023-05-09T10:03:49.398Z,34.07
2023-05-09T10:04:49.408Z,33.90
2023-05-09T10:05:49.539Z,33.96
2023-05-09T10:06:49.420Z,33.96
2023-05-09T10:07:49.441Z,33.89
2023-05-09T10:08:49.450Z,33.98
2023-05-09T10:09:49.454Z,33.94
2023-05-09T10:10:49.436Z,34.04
2023-05-09T10:11:49.419Z,33.98
2023-05-09T10:12:49.458Z,34.07
2023-05-09T10:13:49.451Z,34.03
2023-05-09T10:14:49.425Z,34.07
2023-05-09T10:15:53.447Z,34.11
2023-05-09T10:16:49.435Z,34.27
2023-05-09T10:17:49.462Z,34.24
2023-05-09T10:18:49.467Z,34.24
2023-05-09T10:19:49.324Z,34.14
2023-05-09T10:20:49.261Z,34.07
2023-05-09T10:21:49.319Z,34.07
2023-05-09T10:22:49.197Z,34.14
2023-05-09T10:23:49.177Z,34.06
2023-05-09T10:24:49.114Z,32.56
2023-05-09T10:25:49.063Z,31.88
2023-05-09T10:26:49.031Z,31.88
2023-05-09T10:27:49.012Z,32.25
2023-05-09T10:28:48.972Z,32.15
2023-05-09T10:29:48.931Z,32.07
2023-05-09T10:30:48.923Z,32.94
2023-05-09T10:31:48.877Z,32.99
2023-05-09T10:32:48.836Z,33.18
2023-05-09T10:33:48.810Z,33.14
2023-05-09T10:34:48.748Z,33.06
2023-05-09T10:35:48.703Z,33.32
2023-05-09T10:36:48.670Z,33.46
2023-05-09T10:37:48.633Z,33.58
2023-05-09T10:38:48.591Z,33.73
2023-05-09T10:39:48.566Z,33.71
2023-05-09T10:40:48.517Z,33.74
2023-05-09T10:41:48.481Z,33.60
2023-05-09T10:42:48.441Z,34.80
2023-05-09T10:43:48.436Z,33.70
2023-05-09T10:44:48.378Z,33.69
2023-05-09T10:45:48.346Z,33.38
2023-05-09T10:46:48.334Z,33.47
2023-05-09T10:47:48.321Z,33.33
2023-05-09T10:48:48.360Z,34.03
2023-05-09T10:49:48.350Z,33.67
2023-05-09T10:50:48.350Z,33.57
2023-05-09T10:51:48.357Z,33.80
2023-05-09T10:52:48.366Z,33.63
2023-05-09T10:53:48.501Z,33.51
2023-05-09T10:54:48.390Z,33.36
2023-05-09T10:55:48.398Z,33.48
2023-05-09T10:56:48.403Z,33.97
2023-05-09T10:57:48.430Z,36.73
2023-05-09T10:58:48.434Z,36.18
2023-05-09T10:59:48.467Z,35.46
2023-05-09T11:00:48.465Z,35.43
2023-05-09T11:01:48.511Z,34.89
2023-05-09T11:02:48.626Z,34.82
2023-05-09T11:03:48.625Z,34.82
2023-05-09T11:04:48.778Z,34.80
2023-05-09T11:05:48.614Z,34.96
2023-05-09T11:06:48.631Z,35.02
2023-05-09T11:07:48.704Z,35.29
2023-05-09T11:08:48.690Z,35.20
2023-05-09T11:09:48.695Z,35.10
2023-05-09T11:10:48.703Z,34.87
2023-05-09T11:11:48.762Z,34.65
2023-05-09T11:12:48.761Z,34.22
2023-05-09T11:13:48.790Z,34.15
2023-05-09T11:14:48.819Z,34.03
2023-05-09T11:15:48.782Z,34.03
2023-05-09T11:16:48.724Z,33.93
2023-05-09T11:17:48.712Z,33.81
2023-05-09T11:18:48.606Z,33.70
2023-05-09T11:19:48.583Z,33.67
2023-05-09T11:20:48.550Z,33.72
2023-05-09T11:21:48.492Z,33.61
2023-05-09T11:22:48.469Z,33.58
2023-05-09T11:23:48.400Z,33.54
2023-05-09T11:24:48.428Z,33.48
2023-05-09T11:25:48.404Z,33.48
2023-05-09T11:26:48.316Z,33.42
2023-05-09T11:27:48.296Z,33.34
2023-05-09T11:28:48.315Z,33.29
2023-05-09T11:29:48.822Z,33.16
2023-05-09T11:30:48.349Z,33.15
2023-05-09T11:31:48.379Z,33.11
2023-05-09T11:32:48.444Z,33.07
2023-05-09T11:33:48.401Z,33.02
2023-05-09T11:34:48.411Z,32.94
2023-05-09T11:35:48.437Z,32.91
2023-05-09T11:36:48.409Z,32.89
2023-05-09T11:37:48.530Z,32.75
2023-05-09T11:38:48.480Z,32.67
2023-05-09T11:39:48.532Z,32.67
2023-05-09T11:40:48.473Z,32.67
2023-05-09T11:41:48.583Z,32.61
2023-05-09T11:42:48.519Z,32.62
2023-05-09T11:43:48.537Z,32.53
2023-05-09T11:44:48.546Z,32.51
2023-05-09T11:45:48.601Z,32.48
2023-05-09T11:46:48.596Z,32.44
2023-05-09T11:47:48.699Z,32.44
2023-05-09T11:48:48.617Z,32.45
2023-05-09T11:49:48.616Z,32.34
2023-05-09T11:50:48.640Z,32.31
2023-05-09T11:51:48.649Z,32.25
2023-05-09T11:52:48.649Z,32.34
2023-05-09T11:53:48.652Z,32.26
2023-05-09T11:54:48.692Z,32.22
2023-05-09T11:55:48.692Z,32.19
2023-05-09T11:56:48.707Z,32.17
2023-05-09T11:57:48.737Z,32.15
2023-05-09T11:58:48.694Z,32.15
2023-05-09T11:59:48.725Z,32.08
2023-05-09T12:00:48.734Z,32.05
2023-05-09T12:01:48.767Z,32.05
2023-05-09T12:02:48.827Z,32.03
2023-05-09T12:03:48.835Z,31.97
2023-05-09T12:04:48.802Z,32.03
2023-05-09T12:05:48.802Z,31.94
2023-05-09T12:06:48.840Z,31.95
2023-05-09T12:07:48.889Z,31.97
2023-05-09T12:08:48.883Z,31.97
2023-05-09T12:09:48.916Z,31.89
2023-05-09T12:10:48.892Z,31.85
2023-05-09T12:11:49.988Z,31.89
2023-05-09T12:12:49.115Z,31.89
2023-05-09T12:13:49.114Z,31.85
2023-05-09T12:14:49.025Z,31.83
2023-05-09T12:15:49.063Z,31.82
2023-05-09T12:16:48.998Z,31.74
2023-05-09T12:17:51.332Z,31.71
2023-05-09T12:18:48.963Z,31.68
2023-05-09T12:19:48.927Z,31.65
2023-05-09T12:20:48.898Z,31.61
2023-05-09T12:21:48.872Z,31.62
2023-05-09T12:22:48.832Z,31.59
2023-05-09T12:23:51.226Z,31.61
2023-05-09T12:24:48.771Z,31.52
2023-05-09T12:25:48.711Z,31.54
2023-05-09T12:26:48.668Z,31.49
2023-05-09T12:27:48.638Z,31.45
2023-05-09T12:28:48.608Z,31.41
2023-05-09T12:29:48.652Z,31.41
2023-05-09T12:30:48.519Z,31.39
2023-05-09T12:31:48.554Z,31.45
2023-05-09T12:32:48.439Z,31.39
2023-05-09T12:33:48.394Z,31.29
2023-05-09T12:34:48.368Z,31.31
2023-05-09T12:35:48.315Z,31.24
2023-05-09T12:36:48.264Z,31.22
2023-05-09T12:37:48.214Z,31.24
2023-05-09T12:38:48.202Z,31.26
2023-05-09T12:39:48.203Z,31.23
2023-05-09T12:40:48.218Z,31.24
2023-05-09T12:41:57.856Z,31.17
2023-05-09T12:42:49.207Z,31.14
2023-05-09T12:43:48.153Z,31.10
2023-05-09T12:44:48.106Z,31.10
2023-05-09T12:45:48.083Z,31.05
2023-05-09T12:46:48.054Z,30.99
2023-05-09T12:47:48.045Z,30.97
2023-05-09T12:48:47.958Z,30.96
2023-05-09T12:49:47.956Z,30.97
2023-05-09T12:50:47.891Z,31.00
2023-05-09T12:51:47.872Z,30.96
2023-05-09T12:53:01.989Z,30.99
2023-05-09T12:53:48.789Z,30.90
2023-05-09T12:54:47.735Z,30.82